Terminal Aerodrome Forecast
Issued by NWS

Home | Current Version | Previous Version | Graphics & Text | Print | Product List | Glossary On
Versions: 1 2 3 4 5 6 7 8 9 10 11 12 13 14 15 16 17 18 19 20 21 22 23 24 25
000
FTUS43 KBIS 260359 AAB
TAFJMS
TAF AMD
KJMS 260359Z 2604/2624 19007KT P6SM -SHRA VCTS OVC080CB
     FM260600 25006KT P6SM BKN100
     FM261000 27007KT P6SM SCT110
     FM261400 27011KT P6SM SCT080
      AMD NOT SKED=

USA.gov is the U.S. government's official web portal to all federal, state and local government web resources and services.